createdAt,value
2022-09-05T00:02:19.607Z,20.21
2022-09-05T00:04:49.056Z,20.22
2022-09-05T00:07:37.391Z,20.26
2022-09-05T00:10:21.301Z,20.27
2022-09-05T00:13:07.145Z,20.27
2022-09-05T00:15:37.542Z,20.29
2022-09-05T00:21:10.470Z,20.28
2022-09-05T00:24:25.045Z,20.31
2022-09-05T00:24:50.309Z,20.31
2022-09-05T00:27:35.299Z,20.25
2022-09-05T00:31:50.792Z,20.21
2022-09-05T00:33:29.141Z,20.20
2022-09-05T00:36:23.926Z,20.25
2022-09-05T00:39:18.112Z,20.26
2022-09-05T00:41:49.553Z,20.25
2022-09-05T00:44:19.031Z,20.21
2022-09-05T00:46:57.852Z,20.20
2022-09-05T00:49:32.977Z,20.21
2022-09-05T00:52:21.736Z,20.20
2022-09-05T00:55:09.511Z,20.17
2022-09-05T00:58:13.751Z,20.14
2022-09-05T01:01:01.156Z,20.17
2022-09-05T01:03:52.545Z,20.14
2022-09-05T01:06:45.283Z,20.14
2022-09-05T01:09:25.111Z,20.13
2022-09-05T01:12:35.006Z,20.13
2022-09-05T01:15:20.937Z,20.12
2022-09-05T01:17:56.634Z,20.12
2022-09-05T01:20:53.379Z,20.10
2022-09-05T01:23:40.991Z,20.09
2022-09-05T01:26:07.581Z,20.07
2022-09-05T01:29:15.589Z,20.05
2022-09-05T01:31:50.411Z,20.02
2022-09-05T01:34:39.187Z,20.01
2022-09-05T01:37:26.687Z,20.01
2022-09-05T01:40:19.628Z,19.98
2022-09-05T01:43:36.885Z,19.96
2022-09-05T01:46:22.633Z,19.96
2022-09-05T01:48:51.367Z,19.91
2022-09-05T01:51:31.418Z,19.88
2022-09-05T01:54:07.296Z,19.83
2022-09-05T01:56:55.337Z,19.78
2022-09-05T01:59:40.911Z,19.71
2022-09-05T02:02:56.256Z,19.60
2022-09-05T02:05:51.867Z,19.47
2022-09-05T02:08:36.865Z,19.40
2022-09-05T02:11:08.421Z,19.38
2022-09-05T02:13:34.928Z,19.35
2022-09-05T02:16:31.400Z,19.26
2022-09-05T02:19:10.636Z,19.17
2022-09-05T02:21:56.114Z,19.10
2022-09-05T02:24:46.197Z,19.06
2022-09-05T02:28:04.292Z,18.95
2022-09-05T02:30:25.386Z,18.88
2022-09-05T02:32:57.773Z,18.83
2022-09-05T02:35:46.060Z,18.81
2022-09-05T02:41:20.285Z,18.79
2022-09-05T02:45:13.048Z,18.85
2022-09-05T02:45:16.850Z,18.92
2022-09-05T02:47:23.487Z,18.95
2022-09-05T02:54:00.468Z,18.95
2022-09-05T02:57:29.370Z,18.93
2022-09-05T02:57:39.224Z,18.90
2022-09-05T02:59:09.118Z,18.87
2022-09-05T03:02:23.156Z,18.86
2022-09-05T03:05:07.135Z,18.93
2022-09-05T03:07:45.813Z,18.91
2022-09-05T03:10:49.836Z,18.86
2022-09-05T03:13:48.973Z,18.89
2022-09-05T03:16:47.638Z,18.94
2022-09-05T03:19:46.703Z,18.94
2022-09-05T03:22:22.300Z,18.98
2022-09-05T03:24:55.964Z,18.98
2022-09-05T03:28:04.084Z,18.98
2022-09-05T03:31:22.262Z,18.98
2022-09-05T03:34:14.175Z,18.97
2022-09-05T03:36:59.439Z,18.95
2022-09-05T03:39:47.833Z,18.92
2022-09-05T03:42:30.446Z,18.91
2022-09-05T03:45:16.330Z,18.88
2022-09-05T03:48:27.883Z,18.87
2022-09-05T03:56:56.911Z,18.85
2022-09-05T03:57:25.710Z,18.83
2022-09-05T03:58:41.887Z,18.83
2022-09-05T04:02:45.079Z,18.84
2022-09-05T04:08:18.542Z,18.78
2022-09-05T04:08:24.099Z,18.80
2022-09-05T04:10:52.454Z,18.74
2022-09-05T04:13:30.991Z,18.74
2022-09-05T04:16:18.309Z,18.73
2022-09-05T04:19:05.707Z,18.69
2022-09-05T04:21:38.890Z,18.63
2022-09-05T04:24:13.551Z,18.63
2022-09-05T04:27:17.602Z,18.64
2022-09-05T04:30:38.865Z,18.66
2022-09-05T04:33:37.396Z,18.68
2022-09-05T04:36:26.601Z,18.68
2022-09-05T04:39:24.890Z,18.69
2022-09-05T04:42:24.152Z,18.68
2022-09-05T04:44:57.120Z,18.69
2022-09-05T04:47:38.104Z,18.68
2022-09-05T04:50:23.384Z,18.68
2022-09-05T04:53:04.200Z,18.64
2022-09-05T04:55:41.580Z,18.59
2022-09-05T04:59:29.328Z,18.56
2022-09-05T05:06:00.969Z,18.49
2022-09-05T05:06:12.750Z,18.45
2022-09-05T05:07:32.848Z,18.39
2022-09-05T05:10:52.675Z,18.38
2022-09-05T05:17:59.705Z,18.39
2022-09-05T05:18:12.505Z,18.46
2022-09-05T05:19:21.692Z,18.49
2022-09-05T05:21:55.206Z,18.48
2022-09-05T05:24:36.548Z,18.51
2022-09-05T05:27:32.614Z,18.57
2022-09-05T05:30:04.860Z,18.62
2022-09-05T05:32:46.221Z,18.66
2022-09-05T05:35:23.490Z,18.72
2022-09-05T05:38:04.078Z,18.76
2022-09-05T05:40:39.740Z,18.88
2022-09-05T05:43:34.524Z,19.07
2022-09-05T05:46:01.935Z,19.17
2022-09-05T05:48:37.142Z,19.28
2022-09-05T05:51:51.928Z,19.41
2022-09-05T05:54:35.486Z,19.64
2022-09-05T05:57:30.133Z,19.75
2022-09-05T06:00:43.462Z,19.95
2022-09-05T06:03:42.958Z,20.14
2022-09-05T06:06:37.732Z,20.27
2022-09-05T06:14:47.986Z,20.34
2022-09-05T06:15:00.310Z,20.42
2022-09-05T06:15:26.733Z,20.49
2022-09-05T06:17:53.969Z,20.55
2022-09-05T06:22:04.999Z,20.63
2022-09-05T06:24:15.729Z,20.71
2022-09-05T06:27:23.188Z,20.77
2022-09-05T06:29:55.712Z,20.82
2022-09-05T06:32:43.138Z,20.87
2022-09-05T06:35:40.474Z,20.91
2022-09-05T06:38:24.589Z,20.99
2022-09-05T06:41:21.310Z,21.07
2022-09-05T06:44:06.414Z,21.20
2022-09-05T06:47:22.835Z,21.31
2022-09-05T06:49:46.099Z,21.44
2022-09-05T06:52:29.027Z,21.57
2022-09-05T06:55:27.485Z,21.63
2022-09-05T06:58:21.935Z,21.76
2022-09-05T07:00:59.686Z,21.83
2022-09-05T07:03:41.342Z,21.92
2022-09-05T07:06:19.830Z,21.96
2022-09-05T07:08:53.982Z,22.04
2022-09-05T07:11:24.861Z,22.14
2022-09-05T07:14:01.591Z,22.22
2022-09-05T07:16:37.857Z,22.34
2022-09-05T07:19:24.445Z,22.45
2022-09-05T07:22:02.922Z,22.60
2022-09-05T07:24:45.584Z,22.70
2022-09-05T07:27:33.796Z,22.96
2022-09-05T07:30:19.432Z,23.13
2022-09-05T07:32:51.034Z,23.20
2022-09-05T07:35:31.191Z,23.28
2022-09-05T07:38:15.166Z,23.37
2022-09-05T07:41:01.887Z,23.39
2022-09-05T07:43:43.566Z,23.42
2022-09-05T07:46:16.150Z,23.49
2022-09-05T07:48:56.008Z,23.56
2022-09-05T07:56:49.253Z,23.69
2022-09-05T07:56:53.747Z,23.63
2022-09-05T07:57:30.936Z,23.78
2022-09-05T08:00:07.721Z,23.82
2022-09-05T08:02:54.804Z,23.91
2022-09-05T08:05:34.255Z,23.99
2022-09-05T08:08:08.064Z,24.03
2022-09-05T08:11:25.629Z,24.08
2022-09-05T08:13:42.688Z,24.19
2022-09-05T08:16:19.453Z,24.26
2022-09-05T08:18:52.786Z,24.33
2022-09-05T08:21:27.167Z,24.42
2022-09-05T08:24:14.125Z,24.45
2022-09-05T08:27:16.733Z,24.50
2022-09-05T08:30:25.142Z,24.60
2022-09-05T08:32:57.493Z,24.57
2022-09-05T08:35:44.065Z,24.69
2022-09-05T08:38:14.938Z,24.69
2022-09-05T08:40:51.553Z,24.76
2022-09-05T08:45:39.550Z,24.94
2022-09-05T08:46:42.291Z,25.06
2022-09-05T08:49:45.553Z,25.18
2022-09-05T08:52:53.547Z,25.27
2022-09-05T08:55:28.357Z,25.28
2022-09-05T08:58:29.069Z,25.26
2022-09-05T09:01:04.452Z,25.35
2022-09-05T09:03:55.836Z,25.44
2022-09-05T09:06:33.177Z,25.43
2022-09-05T09:09:24.542Z,25.51
2022-09-05T09:11:55.364Z,25.59
2022-09-05T09:14:34.024Z,25.62
2022-09-05T09:17:15.750Z,25.65
2022-09-05T09:19:50.981Z,25.68
2022-09-05T09:22:26.694Z,25.72
2022-09-05T09:25:14.334Z,25.80
2022-09-05T09:28:46.385Z,25.84
2022-09-05T09:31:38.924Z,25.97
2022-09-05T09:34:17.397Z,26.06
2022-09-05T09:37:15.115Z,26.07
2022-09-05T09:40:00.745Z,26.16
2022-09-05T09:42:36.284Z,26.15
2022-09-05T09:45:27.512Z,26.14
2022-09-05T09:48:11.183Z,26.28
2022-09-05T09:51:04.389Z,26.29
2022-09-05T09:53:58.005Z,26.36
2022-09-05T09:56:58.035Z,26.33
2022-09-05T09:59:54.051Z,26.37
2022-09-05T10:05:02.878Z,26.50
2022-09-05T10:10:38.942Z,26.55
2022-09-05T10:10:49.594Z,26.62
2022-09-05T10:12:21.535Z,26.61
2022-09-05T10:15:08.580Z,26.70
2022-09-05T10:18:04.101Z,26.71
2022-09-05T10:21:16.650Z,26.73
2022-09-05T10:23:50.486Z,26.86
2022-09-05T10:26:24.700Z,26.89
2022-09-05T10:29:34.035Z,26.89
2022-09-05T10:35:05.289Z,26.95
2022-09-05T10:35:22.381Z,27.03
2022-09-05T10:38:17.961Z,27.16
2022-09-05T10:41:20.128Z,27.21
2022-09-05T10:43:47.526Z,27.27
2022-09-05T10:46:50.802Z,27.21
2022-09-05T10:49:30.197Z,27.19
2022-09-05T10:52:18.368Z,27.23
2022-09-05T10:54:48.601Z,27.27
2022-09-05T10:57:35.222Z,27.31
2022-09-05T11:02:16.132Z,27.36
2022-09-05T11:03:01.573Z,27.39
2022-09-05T11:05:37.722Z,27.42
2022-09-05T11:08:11.233Z,27.49
2022-09-05T11:10:45.917Z,27.56
2022-09-05T11:13:47.834Z,27.56
2022-09-05T11:16:26.721Z,27.67
2022-09-05T11:19:15.530Z,27.67
2022-09-05T11:22:23.248Z,27.77
2022-09-05T11:24:58.940Z,27.80
2022-09-05T11:27:40.147Z,27.80
2022-09-05T11:30:29.836Z,27.73
2022-09-05T11:39:48.084Z,27.69
2022-09-05T11:40:02.934Z,27.60
2022-09-05T11:40:03.624Z,27.57
2022-09-05T11:42:09.257Z,27.54
2022-09-05T11:45:08.290Z,27.53
2022-09-05T11:47:50.060Z,27.60
2022-09-05T11:50:29.558Z,27.59
2022-09-05T11:53:25.076Z,27.64
2022-09-05T11:56:03.821Z,27.67
2022-09-05T11:58:52.160Z,27.64
2022-09-05T12:01:44.053Z,27.78
2022-09-05T12:04:36.626Z,27.89
2022-09-05T12:07:26.259Z,27.90
2022-09-05T12:10:45.955Z,27.87
2022-09-05T12:13:29.191Z,27.90
2022-09-05T12:16:08.617Z,27.96
2022-09-05T12:19:02.799Z,27.98
2022-09-05T12:22:23.943Z,28.03
2022-09-05T12:25:45.871Z,28.06
2022-09-05T12:29:26.783Z,27.97
2022-09-05T12:33:17.503Z,27.95
2022-09-05T12:36:12.246Z,28.00
2022-09-05T12:40:55.752Z,28.16
2022-09-05T12:41:42.814Z,28.29
2022-09-05T12:44:37.785Z,28.45
2022-09-05T12:47:16.601Z,28.53
2022-09-05T12:50:32.361Z,28.64
2022-09-05T12:53:07.024Z,28.77
2022-09-05T12:55:40.072Z,28.91
2022-09-05T13:02:57.166Z,29.04
2022-09-05T13:03:02.134Z,29.21
2022-09-05T13:04:30.054Z,29.27
2022-09-05T13:07:05.688Z,29.50
2022-09-05T13:10:39.436Z,29.68
2022-09-05T13:14:53.611Z,29.55
2022-09-05T13:15:39.309Z,29.20
2022-09-05T13:18:13.227Z,28.94
2022-09-05T13:20:50.297Z,28.91
2022-09-05T13:23:23.169Z,28.82
2022-09-05T13:25:58.614Z,29.02
2022-09-05T13:28:43.125Z,29.24
2022-09-05T13:37:53.927Z,29.53
2022-09-05T13:38:01.021Z,29.80
2022-09-05T13:38:17.617Z,29.70
2022-09-05T13:39:50.656Z,29.95
2022-09-05T13:42:21.331Z,29.91
2022-09-05T13:44:53.976Z,29.78
2022-09-05T13:47:39.847Z,29.59
2022-09-05T13:50:13.662Z,29.63
2022-09-05T13:52:50.011Z,29.67
2022-09-05T13:55:21.150Z,29.72
2022-09-05T13:58:07.480Z,29.55
2022-09-05T14:00:38.730Z,29.54
2022-09-05T14:03:31.551Z,29.92
2022-09-05T14:06:47.394Z,30.53
2022-09-05T14:09:52.597Z,31.11
2022-09-05T14:12:48.730Z,31.57
2022-09-05T14:16:06.658Z,31.52
2022-09-05T14:19:06.274Z,31.39
2022-09-05T14:21:36.932Z,31.69
2022-09-05T14:24:21.973Z,31.98
2022-09-05T14:27:17.015Z,32.18
2022-09-05T14:30:00.994Z,31.92
2022-09-05T14:37:38.985Z,31.42
2022-09-05T14:37:54.704Z,30.78
2022-09-05T14:39:45.055Z,30.49
2022-09-05T14:42:24.038Z,30.34
2022-09-05T14:45:08.606Z,30.21
2022-09-05T14:48:02.488Z,30.05
2022-09-05T14:50:46.330Z,29.96
2022-09-05T14:58:49.225Z,29.56
2022-09-05T15:02:42.572Z,29.49
2022-09-05T15:02:53.201Z,29.48
2022-09-05T15:05:10.995Z,29.42
2022-09-05T15:08:16.249Z,29.49
2022-09-05T15:12:18.641Z,29.58
2022-09-05T15:13:57.280Z,29.64
2022-09-05T15:16:25.669Z,29.60
2022-09-05T15:18:53.446Z,29.55
2022-09-05T15:21:39.907Z,29.46
2022-09-05T15:24:24.386Z,29.37
2022-09-05T15:26:59.467Z,29.32
2022-09-05T15:29:36.213Z,29.30
2022-09-05T15:32:23.249Z,29.21
2022-09-05T15:34:51.449Z,29.06
2022-09-05T15:37:40.877Z,29.08
2022-09-05T15:40:23.483Z,28.96
2022-09-05T15:43:02.188Z,28.86
2022-09-05T15:45:35.614Z,28.75
2022-09-05T15:48:21.315Z,28.62
2022-09-05T15:50:51.592Z,28.51
2022-09-05T15:53:34.593Z,28.42
2022-09-05T15:56:21.225Z,28.39
2022-09-05T15:58:55.235Z,28.35
2022-09-05T16:01:59.590Z,28.28
2022-09-05T16:06:48.413Z,28.24
2022-09-05T16:10:38.256Z,28.16
2022-09-05T16:10:42.867Z,28.17
2022-09-05T16:13:14.092Z,28.04
2022-09-05T16:21:45.988Z,28.01
2022-09-05T16:23:28.533Z,27.95
2022-09-05T16:23:34.271Z,28.02
2022-09-05T16:24:41.531Z,27.93
2022-09-05T16:27:35.737Z,27.88
2022-09-05T16:30:12.006Z,27.72
2022-09-05T16:32:46.539Z,27.65
2022-09-05T16:35:25.023Z,27.61
2022-09-05T16:38:02.226Z,27.57
2022-09-05T16:40:38.884Z,27.53
2022-09-05T16:43:26.882Z,27.50
2022-09-05T16:46:27.290Z,27.51
2022-09-05T16:48:59.987Z,27.50
2022-09-05T16:51:38.325Z,27.48
2022-09-05T16:54:30.986Z,27.47
2022-09-05T16:57:05.697Z,27.44
2022-09-05T16:59:37.489Z,27.39
2022-09-05T17:02:25.786Z,27.34
2022-09-05T17:05:04.876Z,27.29
2022-09-05T17:07:42.134Z,27.24
2022-09-05T17:10:12.202Z,27.18
2022-09-05T17:12:40.723Z,27.12
2022-09-05T17:15:18.830Z,27.07
2022-09-05T17:18:19.969Z,27.00
2022-09-05T17:20:49.818Z,26.94
2022-09-05T17:29:15.584Z,26.89
2022-09-05T17:29:23.804Z,26.81
2022-09-05T17:32:20.314Z,26.66
2022-09-05T17:35:17.709Z,26.59
2022-09-05T17:38:14.865Z,26.54
2022-09-05T17:41:16.154Z,26.51
2022-09-05T17:43:43.116Z,26.46
2022-09-05T17:46:16.304Z,26.40
2022-09-05T17:48:57.244Z,26.35
2022-09-05T17:51:35.363Z,26.30
2022-09-05T17:54:03.231Z,26.24
2022-09-05T17:56:43.791Z,26.18
2022-09-05T17:59:14.322Z,26.12
2022-09-05T18:01:46.131Z,26.07
2022-09-05T18:04:35.586Z,26.00
2022-09-05T18:07:25.514Z,25.94
2022-09-05T18:10:12.645Z,25.88
2022-09-05T18:13:13.316Z,25.79
2022-09-05T18:15:34.486Z,25.73
2022-09-05T18:18:08.630Z,25.69
2022-09-05T18:21:12.227Z,25.64
2022-09-05T18:26:43.474Z,25.57
2022-09-05T18:29:31.047Z,25.52
2022-09-05T18:32:11.998Z,25.48
2022-09-05T18:34:40.081Z,25.45
2022-09-05T18:37:38.171Z,25.40
2022-09-05T18:40:08.339Z,25.35
2022-09-05T18:42:41.076Z,25.32
2022-09-05T18:45:17.403Z,25.29
2022-09-05T18:48:00.096Z,25.27
2022-09-05T18:50:32.364Z,25.25
2022-09-05T18:53:08.735Z,25.23
2022-09-05T18:56:11.347Z,25.20
2022-09-05T18:58:34.338Z,25.17
2022-09-05T19:01:29.153Z,25.12
2022-09-05T19:04:01.170Z,25.08
2022-09-05T19:06:35.032Z,25.12
2022-09-05T19:09:10.682Z,25.08
2022-09-05T19:11:53.996Z,24.98
2022-09-05T19:14:44.942Z,24.92
2022-09-05T19:17:18.112Z,24.90
2022-09-05T19:20:31.050Z,24.89
2022-09-05T19:23:10.395Z,24.88
2022-09-05T19:25:43.734Z,24.83
2022-09-05T19:36:46.371Z,24.78
2022-09-05T19:37:04.960Z,24.73
2022-09-05T19:37:14.597Z,24.76
2022-09-05T19:37:28.975Z,24.70
2022-09-05T19:43:24.192Z,24.70
2022-09-05T19:47:40.430Z,24.70
2022-09-05T19:47:50.282Z,24.70
2022-09-05T19:48:28.240Z,24.68
2022-09-05T19:51:18.656Z,24.65
2022-09-05T19:53:55.232Z,24.66
2022-09-05T19:56:33.680Z,24.72
2022-09-05T19:59:00.381Z,24.67
2022-09-05T20:01:27.401Z,24.64
2022-09-05T20:03:54.633Z,24.58
2022-09-05T20:06:29.893Z,24.55
2022-09-05T20:09:09.800Z,24.52
2022-09-05T20:11:45.987Z,24.50
2022-09-05T20:14:31.025Z,24.47
2022-09-05T20:17:17.083Z,24.45
2022-09-05T20:19:45.046Z,24.43
2022-09-05T20:22:47.398Z,24.42
2022-09-05T20:25:41.630Z,24.42
2022-09-05T20:28:13.231Z,24.39
2022-09-05T20:30:43.252Z,24.37
2022-09-05T20:33:32.381Z,24.29
2022-09-05T20:41:42.024Z,24.24
2022-09-05T20:43:23.237Z,24.18
2022-09-05T20:43:26.920Z,24.20
2022-09-05T20:44:41.794Z,24.09
2022-09-05T20:54:04.500Z,24.00
2022-09-05T20:54:16.037Z,23.90
2022-09-05T20:54:21.743Z,23.87
2022-09-05T20:55:44.995Z,23.89
2022-09-05T20:58:19.905Z,23.89
2022-09-05T21:01:20.906Z,23.87
2022-09-05T21:03:54.461Z,23.88
2022-09-05T21:06:25.711Z,23.87
2022-09-05T21:08:56.284Z,23.86
2022-09-05T21:11:31.447Z,23.87
2022-09-05T21:14:02.631Z,23.86
2022-09-05T21:16:33.176Z,23.88
2022-09-05T21:18:59.883Z,23.89
2022-09-05T21:21:30.342Z,23.89
2022-09-05T21:24:18.212Z,23.87
2022-09-05T21:26:46.842Z,23.84
2022-09-05T21:29:13.405Z,23.81
2022-09-05T21:31:51.401Z,23.78
2022-09-05T21:34:31.411Z,23.74
2022-09-05T21:37:06.401Z,23.71
2022-09-05T21:39:40.194Z,23.64
2022-09-05T21:42:38.881Z,23.55
2022-09-05T21:47:42.728Z,23.52
2022-09-05T21:47:52.460Z,23.47
2022-09-05T21:50:30.646Z,23.46
2022-09-05T21:53:17.444Z,23.47
2022-09-05T21:59:18.249Z,23.47
2022-09-05T21:59:24.361Z,23.47
2022-09-05T22:01:21.302Z,23.44
2022-09-05T22:04:09.392Z,23.42
2022-09-05T22:06:36.907Z,23.42
2022-09-05T22:09:13.667Z,23.39
2022-09-05T22:11:41.015Z,23.32
2022-09-05T22:14:09.112Z,23.27
2022-09-05T22:16:44.737Z,23.24
2022-09-05T22:19:17.900Z,23.19
2022-09-05T22:21:44.755Z,23.18
2022-09-05T22:24:12.452Z,23.15
2022-09-05T22:27:11.733Z,23.12
2022-09-05T22:29:34.545Z,23.12
2022-09-05T22:32:01.570Z,23.14
2022-09-05T22:38:07.050Z,23.01
2022-09-05T22:40:36.749Z,23.02
2022-09-05T22:43:06.351Z,22.89
2022-09-05T22:45:34.757Z,22.81
2022-09-05T22:48:08.748Z,22.82
2022-09-05T22:50:35.535Z,22.78
2022-09-05T22:56:33.349Z,22.78
2022-09-05T22:58:59.985Z,22.80
2022-09-05T23:01:27.123Z,22.71
2022-09-05T23:03:53.784Z,22.72
2022-09-05T23:06:20.393Z,22.72
2022-09-05T23:08:47.080Z,22.66
2022-09-05T23:11:16.396Z,22.57
2022-09-05T23:13:43.427Z,22.57
2022-09-05T23:16:10.877Z,22.61
2022-09-05T23:18:37.793Z,22.62
2022-09-05T23:21:09.993Z,22.61
2022-09-05T23:23:37.824Z,22.61
2022-09-05T23:26:07.666Z,22.61
2022-09-05T23:28:34.399Z,22.55
2022-09-05T23:31:01.730Z,22.55
2022-09-05T23:33:30.850Z,22.48
2022-09-05T23:36:06.948Z,22.44
2022-09-05T23:38:34.263Z,22.50
2022-09-05T23:41:10.410Z,22.56
2022-09-05T23:43:37.325Z,22.48
2022-09-05T23:46:04.515Z,22.49
2022-09-05T23:48:32.130Z,22.61
2022-09-05T23:51:07.606Z,22.68
2022-09-05T23:53:34.657Z,22.68
2022-09-05T23:56:05.916Z,22.74
2022-09-05T23:58:33.183Z,22.71
